Time;durP1;ratioP1;P1;durP2;ratioP2;P2;SDS_P1;SDS_P2;PMS_P1;PMS_P2;Temp;Humidity;BMP_temperature;BMP_pressure;BME280_temperature;BME280_humidity;BME280_pressure;Samples;Min_cycle;Max_cycle;Signal;HPM_P1;HPM_P2
2022/05/05 00:00:48;;;;;;;8.20;2.38;;;;;;;;;;4973532;28;20027;-74
2022/05/05 00:03:14;;;;;;;6.57;2.55;;;;;;;;;;4973296;28;20047;-75
2022/05/05 00:05:39;;;;;;;4.22;2.17;;;;;;;;;;4974893;28;20039;-72
2022/05/05 00:08:04;;;;;;;4.72;2.53;;;;;;;;;;4975749;28;20865;-74
2022/05/05 00:16:00;;;;;;;4.53;2.00;;;;;;;;;;4992401;28;20135;-74
2022/05/05 00:18:27;;;;;;;6.93;2.00;;;;;;;;;;4991437;28;20077;-73
2022/05/05 00:20:55;;;;;;;6.72;2.10;;;;;;;;;;4991123;28;20043;-74
2022/05/05 00:23:21;;;;;;;5.03;1.95;;;;;;;;;;4991525;28;20435;-73
2022/05/05 00:25:48;;;;;;;5.10;2.00;;;;;;;;;;4988945;28;20053;-73
2022/05/05 00:28:14;;;;;;;7.10;2.50;;;;;;;;;;4990168;28;20521;-75
2022/05/05 00:30:39;;;;;;;5.32;2.08;;;;;;;;;;5005204;28;20039;-75
2022/05/05 00:33:05;;;;;;;4.88;2.15;;;;;;;;;;4990560;28;20065;-76
2022/05/05 00:35:30;;;;;;;7.32;1.98;;;;;;;;;;4992548;28;20529;-74
2022/05/05 00:37:56;;;;;;;4.60;1.90;;;;;;;;;;4991570;28;20030;-73
2022/05/05 00:40:22;;;;;;;8.48;2.33;;;;;;;;;;4991589;28;20053;-74
2022/05/05 00:42:47;;;;;;;6.95;2.13;;;;;;;;;;4988293;28;20046;-73
2022/05/05 00:45:13;;;;;;;7.38;2.35;;;;;;;;;;4989456;28;20053;-74
2022/05/05 00:47:39;;;;;;;6.35;2.22;;;;;;;;;;4992235;28;20038;-73
2022/05/05 00:50:05;;;;;;;10.23;2.42;;;;;;;;;;4993267;28;20046;-73
2022/05/05 00:52:31;;;;;;;6.65;2.15;;;;;;;;;;4990772;28;20096;-74
2022/05/05 00:54:57;;;;;;;6.88;2.20;;;;;;;;;;4992349;28;20545;-73
2022/05/05 00:57:23;;;;;;;6.13;2.47;;;;;;;;;;4988425;28;20478;-74
2022/05/05 00:59:50;;;;;;;4.53;2.13;;;;;;;;;;4988621;28;20057;-73
2022/05/05 01:02:16;;;;;;;6.13;2.42;;;;;;;;;;4987616;28;20625;-75
2022/05/05 01:04:42;;;;;;;4.75;2.22;;;;;;;;;;4989369;28;20037;-74
2022/05/05 01:07:08;;;;;;;8.77;2.65;;;;;;;;;;4989359;28;20105;-74
2022/05/05 01:09:35;;;;;;;6.38;2.25;;;;;;;;;;4989966;28;20453;-73
2022/05/05 01:12:02;;;;;;;6.22;2.42;;;;;;;;;;4987630;28;20046;-74
2022/05/05 01:14:29;;;;;;;7.00;2.67;;;;;;;;;;5002396;28;20141;-74
2022/05/05 01:16:54;;;;;;;6.10;2.65;;;;;;;;;;4989293;28;20030;-74
2022/05/05 01:19:20;;;;;;;6.93;2.58;;;;;;;;;;4991192;28;20026;-73
2022/05/05 01:21:55;;;;;;;9.65;3.00;;;;;;;;;;4989494;28;20494;-74
2022/05/05 01:29:51;;;;;;;6.13;2.40;;;;;;;;;;4987897;28;20076;-74
2022/05/05 01:32:17;;;;;;;5.18;2.40;;;;;;;;;;4990117;28;20049;-75
2022/05/05 01:34:42;;;;;;;6.13;2.55;;;;;;;;;;4990080;28;20034;-73
2022/05/05 01:37:07;;;;;;;6.47;2.45;;;;;;;;;;4990113;28;20038;-74
2022/05/05 01:39:33;;;;;;;8.80;2.40;;;;;;;;;;5002532;28;20097;-70
2022/05/05 01:41:58;;;;;;;9.75;2.78;;;;;;;;;;4990515;28;20042;-69
2022/05/05 01:44:24;;;;;;;3.10;2.35;;;;;;;;;;4986279;28;20057;-72
2022/05/05 01:46:52;;;;;;;10.55;3.53;;;;;;;;;;4990685;28;20485;-68
2022/05/05 01:49:17;;;;;;;5.25;2.88;;;;;;;;;;4990044;28;20057;-70
2022/05/05 01:51:43;;;;;;;5.95;2.53;;;;;;;;;;4988394;28;20058;-70
2022/05/05 01:54:09;;;;;;;8.85;2.70;;;;;;;;;;4989097;28;20118;-73
2022/05/05 01:56:34;;;;;;;3.92;2.50;;;;;;;;;;4980969;28;20125;-70
2022/05/05 01:58:59;;;;;;;5.72;2.53;;;;;;;;;;4970029;28;20039;-69
2022/05/05 02:01:25;;;;;;;6.95;2.58;;;;;;;;;;4970597;28;20101;-69
2022/05/05 02:03:50;;;;;;;5.68;2.72;;;;;;;;;;4988459;28;20045;-69
2022/05/05 02:06:16;;;;;;;9.80;2.90;;;;;;;;;;4989149;28;20657;-69
2022/05/05 02:08:41;;;;;;;5.32;2.85;;;;;;;;;;4989774;28;20039;-70
2022/05/05 02:11:06;;;;;;;7.82;2.78;;;;;;;;;;4990040;28;20091;-69
2022/05/05 02:13:32;;;;;;;10.70;2.85;;;;;;;;;;4988124;28;20452;-69
2022/05/05 02:15:58;;;;;;;5.93;2.60;;;;;;;;;;4988888;28;20035;-69
2022/05/05 02:18:23;;;;;;;8.85;3.65;;;;;;;;;;4987928;28;20069;-68
2022/05/05 02:20:49;;;;;;;7.53;3.10;;;;;;;;;;4999432;28;20034;-70
2022/05/05 02:23:15;;;;;;;5.35;2.88;;;;;;;;;;4986388;28;20038;-69
2022/05/05 02:25:41;;;;;;;8.20;3.00;;;;;;;;;;4989777;28;20081;-70
2022/05/05 02:28:06;;;;;;;6.28;3.05;;;;;;;;;;4988042;28;20482;-71
2022/05/05 02:30:32;;;;;;;5.72;2.88;;;;;;;;;;4988006;28;20491;-70
2022/05/05 02:32:57;;;;;;;6.78;3.20;;;;;;;;;;4989505;28;20050;-69
2022/05/05 02:35:23;;;;;;;8.43;3.45;;;;;;;;;;4989991;28;20121;-69
2022/05/05 02:40:33;;;;;;;6.85;3.38;;;;;;;;;;4987852;28;20058;-68
2022/05/05 02:42:59;;;;;;;6.93;3.42;;;;;;;;;;4989606;28;20038;-69
2022/05/05 02:45:25;;;;;;;7.07;3.60;;;;;;;;;;4989505;28;20400;-70
2022/05/05 02:47:51;;;;;;;5.68;3.47;;;;;;;;;;4987492;28;20214;-69
2022/05/05 02:50:17;;;;;;;6.93;3.83;;;;;;;;;;4989362;28;20046;-68
2022/05/05 02:52:43;;;;;;;8.10;4.03;;;;;;;;;;4990101;28;20061;-70
2022/05/05 02:55:09;;;;;;;7.45;3.90;;;;;;;;;;4988639;28;20065;-69
2022/05/05 02:57:34;;;;;;;8.43;4.40;;;;;;;;;;4988692;28;20115;-69
2022/05/05 03:00:00;;;;;;;7.82;4.32;;;;;;;;;;4989419;28;20031;-69
2022/05/05 03:02:25;;;;;;;8.70;4.18;;;;;;;;;;4991469;28;20157;-70
2022/05/05 03:04:51;;;;;;;7.13;4.03;;;;;;;;;;4988352;28;20026;-69
2022/05/05 03:07:17;;;;;;;4.88;4.05;;;;;;;;;;4988627;28;20061;-69
2022/05/05 03:09:43;;;;;;;7.35;4.22;;;;;;;;;;4989255;28;20121;-69
2022/05/05 03:12:10;;;;;;;9.25;4.50;;;;;;;;;;4988086;28;20393;-70
2022/05/05 03:14:37;;;;;;;6.25;4.55;;;;;;;;;;4987821;28;20053;-70
2022/05/05 03:17:03;;;;;;;11.13;6.03;;;;;;;;;;4989444;28;20104;-69
2022/05/05 03:19:28;;;;;;;8.93;5.68;;;;;;;;;;4988424;28;20041;-71
2022/05/05 03:21:54;;;;;;;9.40;5.80;;;;;;;;;;4990659;28;20042;-69
2022/05/05 03:24:19;;;;;;;11.85;6.50;;;;;;;;;;4990286;28;20097;-69
2022/05/05 03:26:45;;;;;;;13.90;6.18;;;;;;;;;;4980454;28;20487;-70
2022/05/05 03:29:11;;;;;;;8.23;5.80;;;;;;;;;;4974494;28;20038;-69
2022/05/05 03:31:36;;;;;;;11.82;6.47;;;;;;;;;;4989909;28;20058;-69
2022/05/05 03:34:02;;;;;;;11.55;6.75;;;;;;;;;;4988951;28;20050;-69
2022/05/05 03:36:28;;;;;;;10.52;7.20;;;;;;;;;;4990847;28;20053;-70
2022/05/05 03:38:54;;;;;;;13.45;7.97;;;;;;;;;;4993253;28;20030;-70
2022/05/05 03:41:20;;;;;;;11.88;8.35;;;;;;;;;;4991630;28;20105;-69
2022/05/05 03:43:45;;;;;;;11.77;8.45;;;;;;;;;;5006888;28;20026;-71
2022/05/05 03:46:11;;;;;;;15.45;9.68;;;;;;;;;;4993231;28;20034;-70
2022/05/05 03:48:36;;;;;;;16.58;9.50;;;;;;;;;;4991752;28;20117;-68
2022/05/05 03:51:02;;;;;;;18.45;10.80;;;;;;;;;;4994132;28;20049;-70
2022/05/05 03:53:27;;;;;;;18.35;10.57;;;;;;;;;;4991856;28;20464;-70
2022/05/05 03:55:52;;;;;;;18.27;11.27;;;;;;;;;;5009000;28;20030;-70
2022/05/05 03:58:18;;;;;;;18.08;11.30;;;;;;;;;;4991253;28;20042;-68
2022/05/05 04:00:45;;;;;;;17.55;11.07;;;;;;;;;;4993274;28;20038;-68
2022/05/05 04:05:54;;;;;;;15.88;11.52;;;;;;;;;;4992191;28;20045;-70
2022/05/05 04:08:20;;;;;;;19.55;11.88;;;;;;;;;;4989373;28;20038;-75
2022/05/05 04:10:45;;;;;;;14.75;10.85;;;;;;;;;;4991011;28;20146;-73
2022/05/05 04:13:11;;;;;;;15.70;10.55;;;;;;;;;;4992500;28;20030;-72
2022/05/05 04:15:36;;;;;;;15.95;11.27;;;;;;;;;;4991934;28;20034;-73
2022/05/05 04:18:02;;;;;;;17.58;10.43;;;;;;;;;;4990258;28;20561;-73
2022/05/05 04:20:28;;;;;;;16.50;10.70;;;;;;;;;;4991151;28;20042;-70
2022/05/05 04:22:55;;;;;;;20.77;11.88;;;;;;;;;;4990621;28;20026;-73
2022/05/05 04:25:21;;;;;;;14.90;10.60;;;;;;;;;;4991660;28;20030;-73
2022/05/05 04:27:47;;;;;;;15.85;11.05;;;;;;;;;;4988497;28;20094;-72
2022/05/05 04:30:14;;;;;;;15.20;11.00;;;;;;;;;;4991417;28;20577;-72
2022/05/05 04:32:40;;;;;;;16.48;10.75;;;;;;;;;;4990405;28;20406;-71
2022/05/05 04:35:05;;;;;;;13.88;9.88;;;;;;;;;;4990439;28;20047;-72
2022/05/05 04:37:31;;;;;;;13.50;9.93;;;;;;;;;;4990281;28;20463;-72
2022/05/05 04:39:56;;;;;;;19.13;10.45;;;;;;;;;;4989388;28;20042;-73
2022/05/05 04:42:22;;;;;;;18.25;10.73;;;;;;;;;;4989448;28;20042;-73
2022/05/05 04:44:47;;;;;;;19.88;10.95;;;;;;;;;;4988635;28;20089;-74
2022/05/05 04:47:12;;;;;;;17.95;10.40;;;;;;;;;;4988551;28;20076;-74
2022/05/05 04:49:38;;;;;;;16.67;10.23;;;;;;;;;;4988104;28;20497;-73
2022/05/05 04:52:04;;;;;;;17.15;10.23;;;;;;;;;;4990053;28;20129;-72
2022/05/05 04:54:29;;;;;;;15.93;10.38;;;;;;;;;;4991818;28;20073;-73
2022/05/05 04:56:54;;;;;;;15.60;10.30;;;;;;;;;;4990368;28;20589;-71
2022/05/05 04:59:20;;;;;;;17.50;10.05;;;;;;;;;;4990570;28;20038;-73
2022/05/05 05:01:45;;;;;;;16.80;10.15;;;;;;;;;;4990050;28;20470;-73
2022/05/05 05:04:11;;;;;;;17.08;10.02;;;;;;;;;;4990986;28;20031;-71
2022/05/05 05:06:36;;;;;;;11.18;9.10;;;;;;;;;;4990073;28;20399;-73
2022/05/05 05:09:02;;;;;;;14.25;8.82;;;;;;;;;;4988940;28;20517;-69
2022/05/05 05:11:27;;;;;;;13.90;9.60;;;;;;;;;;4990476;28;20042;-72
2022/05/05 05:13:53;;;;;;;14.55;8.93;;;;;;;;;;4990503;28;20029;-72
2022/05/05 05:16:18;;;;;;;15.52;8.40;;;;;;;;;;5005527;28;20388;-70
2022/05/05 05:18:43;;;;;;;12.23;8.93;;;;;;;;;;4990621;28;20034;-71
2022/05/05 05:21:09;;;;;;;14.40;8.50;;;;;;;;;;4989950;28;20030;-72
2022/05/05 05:23:35;;;;;;;13.65;8.32;;;;;;;;;;4990057;28;20061;-72
2022/05/05 05:26:01;;;;;;;16.15;9.10;;;;;;;;;;4989800;28;20092;-72
2022/05/05 05:28:26;;;;;;;12.85;8.45;;;;;;;;;;4990249;28;20033;-72
2022/05/05 05:30:51;;;;;;;14.43;8.93;;;;;;;;;;5003443;28;20481;-72
2022/05/05 05:33:17;;;;;;;17.77;9.80;;;;;;;;;;4989449;28;20038;-71
2022/05/05 05:35:46;;;;;;;13.95;8.45;;;;;;;;;;4989859;28;20038;-73
2022/05/05 05:38:12;;;;;;;13.00;8.88;;;;;;;;;;4988759;28;20041;-71
2022/05/05 05:40:38;;;;;;;12.75;8.82;;;;;;;;;;4990190;28;20472;-69
2022/05/05 05:43:04;;;;;;;13.55;8.88;;;;;;;;;;4988617;28;20157;-71
2022/05/05 05:45:29;;;;;;;13.60;8.40;;;;;;;;;;4990034;28;20042;-71
2022/05/05 05:47:55;;;;;;;15.77;8.43;;;;;;;;;;4989884;28;20453;-73
2022/05/05 05:50:21;;;;;;;15.50;8.80;;;;;;;;;;4987680;28;20042;-73
2022/05/05 05:52:46;;;;;;;12.43;7.47;;;;;;;;;;4991017;28;20748;-72
2022/05/05 05:55:12;;;;;;;14.02;8.55;;;;;;;;;;4989427;28;20331;-73
2022/05/05 05:57:38;;;;;;;13.93;8.25;;;;;;;;;;4988278;28;20070;-73
2022/05/05 06:00:04;;;;;;;13.65;8.27;;;;;;;;;;4988992;28;20821;-73
2022/05/05 06:05:13;;;;;;;13.57;7.97;;;;;;;;;;4988461;28;20126;-72
2022/05/05 06:07:38;;;;;;;13.48;8.27;;;;;;;;;;4988857;28;20113;-71
2022/05/05 06:10:04;;;;;;;13.52;8.50;;;;;;;;;;4987637;28;20043;-71
2022/05/05 06:12:30;;;;;;;13.85;8.88;;;;;;;;;;4987346;28;20042;-71
2022/05/05 06:14:55;;;;;;;16.20;8.70;;;;;;;;;;5003304;28;20081;-72
2022/05/05 06:17:21;;;;;;;15.80;9.35;;;;;;;;;;4986790;28;20034;-73
2022/05/05 06:19:46;;;;;;;15.70;8.90;;;;;;;;;;4985776;28;20026;-73
2022/05/05 06:22:11;;;;;;;13.40;9.30;;;;;;;;;;4989190;28;20018;-73
2022/05/05 06:24:37;;;;;;;15.70;9.63;;;;;;;;;;4987692;28;20514;-72
2022/05/05 06:27:02;;;;;;;15.95;8.35;;;;;;;;;;4988178;28;20069;-72
2022/05/05 06:29:30;;;;;;;14.63;9.52;;;;;;;;;;4989254;28;20050;-72
2022/05/05 06:31:55;;;;;;;14.88;9.27;;;;;;;;;;4988771;28;20022;-73
2022/05/05 06:34:21;;;;;;;16.52;9.70;;;;;;;;;;4989122;28;20117;-72
2022/05/05 06:36:46;;;;;;;16.50;9.88;;;;;;;;;;4988590;28;20030;-73
2022/05/05 06:39:11;;;;;;;13.27;9.30;;;;;;;;;;4987496;28;20461;-73
2022/05/05 06:41:37;;;;;;;17.15;8.75;;;;;;;;;;4989162;28;20093;-73
2022/05/05 06:44:02;;;;;;;12.85;9.00;;;;;;;;;;4987992;28;20038;-72
2022/05/05 06:46:29;;;;;;;12.40;8.88;;;;;;;;;;4987501;28;20096;-73
2022/05/05 06:48:54;;;;;;;17.17;8.77;;;;;;;;;;4988525;28;20030;-73
2022/05/05 06:51:20;;;;;;;15.68;8.43;;;;;;;;;;4987328;28;20036;-74
2022/05/05 06:53:46;;;;;;;14.30;8.43;;;;;;;;;;4987628;28;20038;-73
2022/05/05 06:56:11;;;;;;;13.93;8.40;;;;;;;;;;4988062;28;20409;-72
2022/05/05 06:58:37;;;;;;;16.67;9.35;;;;;;;;;;4987803;28;20053;-73
2022/05/05 07:03:46;;;;;;;15.77;9.05;;;;;;;;;;4985978;28;20042;-74
2022/05/05 07:06:12;;;;;;;15.13;8.35;;;;;;;;;;5001394;28;20038;-70
2022/05/05 07:11:22;;;;;;;20.58;9.82;;;;;;;;;;4992833;28;20053;-70
2022/05/05 07:13:48;;;;;;;17.13;9.55;;;;;;;;;;4992708;28;20482;-72
2022/05/05 07:16:13;;;;;;;16.42;9.00;;;;;;;;;;4993188;28;20030;-68
2022/05/05 07:18:38;;;;;;;15.80;10.10;;;;;;;;;;4993542;28;20505;-69
2022/05/05 07:21:04;;;;;;;18.13;10.15;;;;;;;;;;4993633;28;20046;-68
2022/05/05 07:23:29;;;;;;;15.77;10.55;;;;;;;;;;4992297;28;20038;-68
2022/05/05 07:25:55;;;;;;;18.15;11.07;;;;;;;;;;4993555;28;20549;-69
2022/05/05 07:28:20;;;;;;;16.95;9.65;;;;;;;;;;4993466;28;20034;-68
2022/05/05 07:30:45;;;;;;;12.52;9.50;;;;;;;;;;4992861;28;20042;-70
2022/05/05 07:33:11;;;;;;;16.58;9.82;;;;;;;;;;4993171;28;20038;-69
2022/05/05 07:35:39;;;;;;;17.13;10.25;;;;;;;;;;4992851;28;20518;-68
2022/05/05 07:38:05;;;;;;;15.82;9.73;;;;;;;;;;4993707;28;20392;-70
2022/05/05 07:40:30;;;;;;;15.00;9.85;;;;;;;;;;4993367;28;20022;-68
2022/05/05 07:42:56;;;;;;;13.82;9.85;;;;;;;;;;4993615;28;20494;-69
2022/05/05 07:45:21;;;;;;;18.63;9.90;;;;;;;;;;4993181;28;20457;-69
2022/05/05 07:47:47;;;;;;;12.10;9.05;;;;;;;;;;4994210;28;20042;-69
2022/05/05 07:50:12;;;;;;;12.68;9.20;;;;;;;;;;4993221;28;20042;-69
2022/05/05 07:52:38;;;;;;;14.95;9.25;;;;;;;;;;4994845;28;20065;-68
2022/05/05 07:55:04;;;;;;;17.08;9.00;;;;;;;;;;4993595;28;20053;-68
2022/05/05 07:57:29;;;;;;;12.20;8.82;;;;;;;;;;4993018;28;20096;-68
2022/05/05 07:59:55;;;;;;;14.32;9.38;;;;;;;;;;4994192;28;20034;-68
2022/05/05 08:02:20;;;;;;;15.07;9.02;;;;;;;;;;4992684;28;20126;-70
2022/05/05 08:04:46;;;;;;;18.75;9.38;;;;;;;;;;4993793;28;20030;-70
2022/05/05 08:07:12;;;;;;;15.57;8.80;;;;;;;;;;4993808;28;20402;-68
2022/05/05 08:09:38;;;;;;;13.43;8.15;;;;;;;;;;4994491;28;20034;-70
2022/05/05 08:12:05;;;;;;;15.50;8.60;;;;;;;;;;4992313;28;20526;-69
2022/05/05 08:14:30;;;;;;;15.50;8.68;;;;;;;;;;4992969;28;20130;-71
2022/05/05 08:16:56;;;;;;;13.13;8.20;;;;;;;;;;4993378;28;20480;-68
2022/05/05 08:19:21;;;;;;;15.65;8.18;;;;;;;;;;4994269;28;20066;-70
2022/05/05 08:21:47;;;;;;;14.60;8.48;;;;;;;;;;4991525;28;20038;-68
2022/05/05 08:29:41;;;;;;;15.02;9.10;;;;;;;;;;4992774;28;20501;-68
2022/05/05 08:32:07;;;;;;;11.75;7.38;;;;;;;;;;4993391;28;20031;-68
2022/05/05 08:34:32;;;;;;;17.85;7.93;;;;;;;;;;4993838;28;20022;-68
2022/05/05 08:36:58;;;;;;;14.20;8.13;;;;;;;;;;4993750;28;20498;-67
2022/05/05 08:39:23;;;;;;;14.00;8.95;;;;;;;;;;4993526;28;20033;-68
2022/05/05 08:41:48;;;;;;;11.07;7.88;;;;;;;;;;4991050;28;20129;-69
2022/05/05 08:44:14;;;;;;;11.77;7.88;;;;;;;;;;4991475;28;20097;-69
2022/05/05 08:46:40;;;;;;;15.20;8.55;;;;;;;;;;4992641;28;20501;-72
2022/05/05 08:49:06;;;;;;;11.13;6.00;;;;;;;;;;4992747;28;20104;-69
2022/05/05 08:51:43;;;;;;;10.77;5.85;;;;;;;;;;4991807;28;20490;-69
2022/05/05 08:54:12;;;;;;;10.13;5.80;;;;;;;;;;4992488;28;20136;-70
2022/05/05 08:56:39;;;;;;;8.50;6.40;;;;;;;;;;4992214;28;20042;-69
2022/05/05 08:59:07;;;;;;;13.35;6.60;;;;;;;;;;4993094;28;20659;-69
2022/05/05 09:01:38;;;;;;;10.75;6.15;;;;;;;;;;4992808;28;20060;-68
2022/05/05 09:04:04;;;;;;;10.82;6.25;;;;;;;;;;4992780;28;20041;-68
2022/05/05 09:06:51;;;;;;;12.48;6.50;;;;;;;;;;4992002;28;20038;-70
2022/05/05 09:09:26;;;;;;;11.32;5.65;;;;;;;;;;4991533;28;20125;-68
2022/05/05 09:12:12;;;;;;;11.18;6.03;;;;;;;;;;4991708;28;20092;-70
2022/05/05 09:14:41;;;;;;;10.57;5.80;;;;;;;;;;4992031;28;20502;-69
2022/05/05 09:17:07;;;;;;;10.93;5.82;;;;;;;;;;4991139;28;20109;-69
2022/05/05 09:19:38;;;;;;;12.20;5.43;;;;;;;;;;4993035;28;20401;-69
2022/05/05 09:22:05;;;;;;;17.55;5.18;;;;;;;;;;4991233;28;20565;-70
2022/05/05 09:24:41;;;;;;;7.68;5.15;;;;;;;;;;4991792;28;20490;-71
2022/05/05 09:27:32;;;;;;;8.70;5.22;;;;;;;;;;4989993;28;20398;-69
2022/05/05 09:30:07;;;;;;;9.27;6.00;;;;;;;;;;4990301;28;20049;-68
2022/05/05 09:32:38;;;;;;;9.02;5.50;;;;;;;;;;4990802;28;20030;-68
2022/05/05 09:35:11;;;;;;;9.95;5.70;;;;;;;;;;4991655;28;20041;-67
2022/05/05 09:37:41;;;;;;;12.50;5.53;;;;;;;;;;4992933;28;20030;-68
2022/05/05 09:40:07;;;;;;;13.75;5.82;;;;;;;;;;4973541;28;20042;-69
2022/05/05 09:42:37;;;;;;;13.98;6.28;;;;;;;;;;4984697;28;20125;-70
2022/05/05 09:45:29;;;;;;;10.27;6.00;;;;;;;;;;4991861;28;20041;-69
2022/05/05 09:47:58;;;;;;;13.43;5.97;;;;;;;;;;4983379;28;20494;-69
2022/05/05 09:50:25;;;;;;;10.98;6.50;;;;;;;;;;4990941;28;20312;-69
2022/05/05 09:58:26;;;;;;;12.77;6.85;;;;;;;;;;4990827;28;20525;-70
2022/05/05 10:00:58;;;;;;;15.38;7.32;;;;;;;;;;4990894;28;20045;-68
2022/05/05 10:04:05;;;;;;;14.43;7.45;;;;;;;;;;4991362;28;20096;-68
2022/05/05 10:06:41;;;;;;;17.85;6.45;;;;;;;;;;4990538;28;20054;-69
2022/05/05 10:09:08;;;;;;;12.95;6.20;;;;;;;;;;4990146;28;20044;-69
2022/05/05 10:11:34;;;;;;;11.70;6.13;;;;;;;;;;4990953;28;20046;-68
2022/05/05 10:14:02;;;;;;;9.45;5.80;;;;;;;;;;4991185;28;20514;-70
2022/05/05 10:16:30;;;;;;;7.47;5.03;;;;;;;;;;4990867;28;20037;-70
2022/05/05 10:18:56;;;;;;;8.93;5.32;;;;;;;;;;4990858;28;20034;-69
2022/05/05 10:21:41;;;;;;;12.40;5.93;;;;;;;;;;4989382;28;20093;-69
2022/05/05 10:24:24;;;;;;;12.88;6.07;;;;;;;;;;4987510;28;20397;-69
2022/05/05 10:26:52;;;;;;;11.52;5.95;;;;;;;;;;5003467;28;20046;-68
2022/05/05 10:29:42;;;;;;;10.80;5.15;;;;;;;;;;4990899;28;20035;-68
2022/05/05 10:32:09;;;;;;;9.23;5.13;;;;;;;;;;4990932;28;20501;-72
2022/05/05 10:34:37;;;;;;;12.40;5.50;;;;;;;;;;4990762;28;20133;-68
2022/05/05 10:37:14;;;;;;;14.90;5.03;;;;;;;;;;4988944;28;20053;-69
2022/05/05 10:40:01;;;;;;;7.82;4.90;;;;;;;;;;4990322;28;20534;-69
2022/05/05 10:42:27;;;;;;;12.35;5.18;;;;;;;;;;4988011;28;20120;-69
2022/05/05 10:45:17;;;;;;;9.30;4.47;;;;;;;;;;4992322;28;20065;-71
2022/05/05 10:50:50;;;;;;;12.45;4.75;;;;;;;;;;4993384;28;20042;-71
2022/05/05 10:53:32;;;;;;;8.13;4.32;;;;;;;;;;4991863;28;20341;-75
2022/05/05 10:56:01;;;;;;;7.65;4.85;;;;;;;;;;4993071;28;20026;-69
2022/05/05 10:58:58;;;;;;;10.05;4.57;;;;;;;;;;4997361;28;20038;-70
2022/05/05 11:01:26;;;;;;;6.78;4.30;;;;;;;;;;4990516;28;20069;-69
2022/05/05 11:04:17;;;;;;;7.05;4.68;;;;;;;;;;4993439;28;20121;-69
2022/05/05 11:06:48;;;;;;;8.15;3.92;;;;;;;;;;4994532;28;20539;-70
2022/05/05 11:09:34;;;;;;;8.98;4.55;;;;;;;;;;4992363;28;20383;-69
2022/05/05 11:12:22;;;;;;;7.32;4.30;;;;;;;;;;4991419;28;20046;-69
2022/05/05 11:23:47;;;;;;;10.50;4.18;;;;;;;;;;4993269;28;20046;-69
2022/05/05 11:26:17;;;;;;;8.15;4.50;;;;;;;;;;4991964;28;20081;-70
2022/05/05 11:28:44;;;;;;;8.43;4.38;;;;;;;;;;4991924;28;20482;-70
2022/05/05 11:31:18;;;;;;;9.77;4.40;;;;;;;;;;4992230;28;20054;-68
2022/05/05 11:33:48;;;;;;;11.30;4.28;;;;;;;;;;4992305;28;20453;-74
2022/05/05 11:36:13;;;;;;;16.38;4.15;;;;;;;;;;4992815;28;20127;-70
2022/05/05 11:38:41;;;;;;;7.88;3.85;;;;;;;;;;4993290;28;20034;-69
2022/05/05 11:41:07;;;;;;;8.10;4.25;;;;;;;;;;4993075;28;20042;-70
2022/05/05 11:46:18;;;;;;;8.52;4.90;;;;;;;;;;4992540;28;20096;-69
2022/05/05 11:48:51;;;;;;;8.30;4.97;;;;;;;;;;4992226;28;20137;-71
2022/05/05 11:51:42;;;;;;;11.63;5.25;;;;;;;;;;4990882;28;20514;-70
2022/05/05 11:54:23;;;;;;;9.77;4.70;;;;;;;;;;4989209;28;20133;-74
2022/05/05 11:56:50;;;;;;;11.48;4.30;;;;;;;;;;4990465;28;20065;-71
2022/05/05 12:02:16;;;;;;;9.05;4.45;;;;;;;;;;4991646;28;20046;-70
2022/05/05 12:04:49;;;;;;;9.02;4.88;;;;;;;;;;4990138;28;20034;-69
2022/05/05 12:07:23;;;;;;;10.10;5.07;;;;;;;;;;4991266;28;20405;-72
2022/05/05 12:09:50;;;;;;;9.13;5.30;;;;;;;;;;4991880;28;20034;-69
2022/05/05 12:12:21;;;;;;;8.40;5.10;;;;;;;;;;4992250;28;20069;-71
2022/05/05 12:15:07;;;;;;;10.80;5.20;;;;;;;;;;4990982;28;20081;-69
2022/05/05 12:17:39;;;;;;;9.00;4.93;;;;;;;;;;5004523;28;20030;-70
2022/05/05 12:20:07;;;;;;;10.82;5.28;;;;;;;;;;4991708;28;20121;-69
2022/05/05 12:22:37;;;;;;;10.68;4.68;;;;;;;;;;5007856;28;20018;-69
2022/05/05 12:25:05;;;;;;;11.57;4.60;;;;;;;;;;4992542;28;20066;-69
2022/05/05 12:27:31;;;;;;;11.15;6.03;;;;;;;;;;4991129;28;20457;-70
2022/05/05 12:29:56;;;;;;;9.10;5.32;;;;;;;;;;4991028;28;20046;-72
2022/05/05 12:32:22;;;;;;;10.15;6.13;;;;;;;;;;4991075;28;20038;-69
2022/05/05 12:34:48;;;;;;;11.35;6.05;;;;;;;;;;4989657;28;20536;-70
2022/05/05 12:37:20;;;;;;;7.68;5.10;;;;;;;;;;4992558;28;20034;-69
2022/05/05 12:40:05;;;;;;;7.90;4.70;;;;;;;;;;4990649;28;20145;-69
2022/05/05 12:42:40;;;;;;;13.38;5.30;;;;;;;;;;4989560;28;20042;-74
2022/05/05 12:45:16;;;;;;;9.32;5.13;;;;;;;;;;4989869;28;20161;-69
2022/05/05 12:47:44;;;;;;;11.73;6.07;;;;;;;;;;4991816;28;20494;-71
2022/05/05 12:50:33;;;;;;;19.05;6.00;;;;;;;;;;4989423;28;20463;-70
2022/05/05 13:01:33;;;;;;;8.85;5.55;;;;;;;;;;4991513;28;20069;-70
2022/05/05 13:04:07;;;;;;;8.00;4.88;;;;;;;;;;4989400;28;20088;-69
2022/05/05 13:06:37;;;;;;;8.30;4.80;;;;;;;;;;4990687;28;20038;-73
2022/05/05 13:09:08;;;;;;;13.45;4.95;;;;;;;;;;4988113;28;20602;-70
2022/05/05 13:11:34;;;;;;;7.65;5.00;;;;;;;;;;4990844;28;20034;-71
2022/05/05 13:14:02;;;;;;;9.27;5.20;;;;;;;;;;4989247;28;20202;-70
2022/05/05 13:16:30;;;;;;;10.60;5.53;;;;;;;;;;4989429;28;20524;-71
2022/05/05 13:18:57;;;;;;;9.52;5.32;;;;;;;;;;4990422;28;20081;-70
2022/05/05 13:21:23;;;;;;;13.90;5.10;;;;;;;;;;4989286;28;20453;-69
2022/05/05 13:23:49;;;;;;;8.82;5.20;;;;;;;;;;4990237;28;20030;-69
2022/05/05 13:26:14;;;;;;;9.52;4.80;;;;;;;;;;4986854;28;20038;-71
2022/05/05 13:28:40;;;;;;;8.05;4.80;;;;;;;;;;4989672;28;20423;-73
2022/05/05 13:31:05;;;;;;;10.40;5.15;;;;;;;;;;4990454;28;20026;-69
2022/05/05 13:33:31;;;;;;;9.90;4.80;;;;;;;;;;4989095;28;20066;-69
2022/05/05 13:35:56;;;;;;;11.02;4.90;;;;;;;;;;4989320;28;20054;-70
2022/05/05 13:38:25;;;;;;;10.32;5.00;;;;;;;;;;4990171;28;20034;-70
2022/05/05 13:40:51;;;;;;;10.43;5.30;;;;;;;;;;4991876;28;20022;-69
2022/05/05 13:43:17;;;;;;;12.80;5.38;;;;;;;;;;4992323;28;20093;-69
2022/05/05 13:45:42;;;;;;;12.05;5.38;;;;;;;;;;5004510;28;20084;-68
2022/05/05 13:48:08;;;;;;;8.93;5.88;;;;;;;;;;4990507;28;20133;-72
2022/05/05 13:50:33;;;;;;;9.57;5.80;;;;;;;;;;4991994;28;20062;-69
2022/05/05 13:52:59;;;;;;;9.48;5.28;;;;;;;;;;4991082;28;20045;-70
2022/05/05 13:55:26;;;;;;;10.38;5.05;;;;;;;;;;4992417;28;20514;-69
2022/05/05 13:57:52;;;;;;;8.68;5.05;;;;;;;;;;4989762;28;20580;-69
2022/05/05 14:00:17;;;;;;;12.05;4.80;;;;;;;;;;4990505;28;20057;-70
2022/05/05 14:02:43;;;;;;;7.35;4.70;;;;;;;;;;4992336;28;20030;-69
2022/05/05 14:05:09;;;;;;;8.88;5.03;;;;;;;;;;4990836;28;20037;-74
2022/05/05 14:13:03;;;;;;;8.38;4.45;;;;;;;;;;4989546;28;20446;-69
2022/05/05 14:15:29;;;;;;;8.00;4.63;;;;;;;;;;4988210;28;20498;-69
2022/05/05 14:17:55;;;;;;;9.63;4.70;;;;;;;;;;4990679;28;20088;-70
2022/05/05 14:20:22;;;;;;;8.88;4.95;;;;;;;;;;4990804;28;20042;-71
2022/05/05 14:22:47;;;;;;;10.43;4.65;;;;;;;;;;5004128;28;20037;-74
2022/05/05 14:25:13;;;;;;;9.43;4.50;;;;;;;;;;4990803;28;20030;-70
2022/05/05 14:27:40;;;;;;;9.60;4.63;;;;;;;;;;4990445;28;20030;-70
2022/05/05 14:30:06;;;;;;;9.27;4.32;;;;;;;;;;4989165;28;20047;-70
2022/05/05 14:32:31;;;;;;;9.57;4.32;;;;;;;;;;4988734;28;20477;-68
2022/05/05 14:34:57;;;;;;;7.50;4.20;;;;;;;;;;4991000;28;20463;-69
2022/05/05 14:37:23;;;;;;;9.75;4.68;;;;;;;;;;4988556;28;20153;-71
2022/05/05 14:39:49;;;;;;;9.68;4.10;;;;;;;;;;4988215;28;20468;-70
2022/05/05 14:42:14;;;;;;;9.93;4.07;;;;;;;;;;4991295;28;20046;-72
2022/05/05 14:44:40;;;;;;;10.20;4.65;;;;;;;;;;4994204;28;20039;-69
2022/05/05 14:47:07;;;;;;;7.88;4.32;;;;;;;;;;4990573;28;20166;-73
2022/05/05 14:49:32;;;;;;;7.97;4.57;;;;;;;;;;4987920;28;20038;-70
2022/05/05 14:51:58;;;;;;;11.30;4.35;;;;;;;;;;4989241;28;20042;-70
2022/05/05 14:54:23;;;;;;;11.05;4.95;;;;;;;;;;4988463;28;20034;-71
2022/05/05 14:56:49;;;;;;;10.80;4.95;;;;;;;;;;4989926;28;20030;-69
2022/05/05 14:59:14;;;;;;;8.43;4.68;;;;;;;;;;4981543;28;20046;-72
2022/05/05 15:01:40;;;;;;;9.30;4.93;;;;;;;;;;4988362;28;20048;-69
2022/05/05 15:04:05;;;;;;;8.63;5.13;;;;;;;;;;4988344;28;20042;-71
2022/05/05 15:06:31;;;;;;;13.00;5.75;;;;;;;;;;4990242;28;20058;-70
2022/05/05 15:08:56;;;;;;;8.38;5.05;;;;;;;;;;4989595;28;20038;-69
2022/05/05 15:11:22;;;;;;;11.27;5.07;;;;;;;;;;4989340;28;20034;-69
2022/05/05 15:13:48;;;;;;;16.63;5.68;;;;;;;;;;4989228;28;20044;-71
2022/05/05 15:16:14;;;;;;;10.43;5.05;;;;;;;;;;5004092;28;20393;-74
2022/05/05 15:18:39;;;;;;;9.93;4.97;;;;;;;;;;4987200;28;20033;-70
2022/05/05 15:21:04;;;;;;;13.02;5.00;;;;;;;;;;4987890;28;20514;-74
2022/05/05 15:23:30;;;;;;;9.15;5.30;;;;;;;;;;4989790;28;20443;-69
2022/05/05 15:25:57;;;;;;;9.43;5.47;;;;;;;;;;4988394;28;20038;-69
2022/05/05 15:28:22;;;;;;;11.60;4.95;;;;;;;;;;4987719;28;20046;-71
2022/05/05 15:30:48;;;;;;;11.45;5.90;;;;;;;;;;4991328;28;20350;-69
2022/05/05 15:33:13;;;;;;;17.02;6.45;;;;;;;;;;4993121;28;20045;-70
2022/05/05 15:35:38;;;;;;;12.63;6.03;;;;;;;;;;4992987;28;20038;-73
2022/05/05 15:38:04;;;;;;;11.15;6.30;;;;;;;;;;4992602;28;20522;-71
2022/05/05 15:40:30;;;;;;;10.80;5.72;;;;;;;;;;4991738;28;20379;-71
2022/05/05 15:42:56;;;;;;;13.77;7.00;;;;;;;;;;4992297;28;20057;-72